createdAt,value
2024-03-03T00:01:20.940Z,99042.19
2024-03-03T00:03:51.297Z,99047.78
2024-03-03T00:06:21.685Z,99064.94
2024-03-03T00:08:52.304Z,99084.41
2024-03-03T00:11:22.892Z,99021.56
2024-03-03T00:13:56.578Z,99050.38
2024-03-03T00:16:27.891Z,99038.22
2024-03-03T00:18:55.829Z,99084.50
2024-03-03T00:21:26.606Z,99018.53
2024-03-03T00:24:00.368Z,99080.84
2024-03-03T00:26:27.689Z,99015.72
2024-03-03T00:28:55.620Z,99054.06
2024-03-03T00:31:26.318Z,99040.88
2024-03-03T00:33:54.035Z,99028.56
2024-03-03T00:36:21.694Z,99014.53
2024-03-03T00:38:52.658Z,99029.81
2024-03-03T00:41:20.050Z,99066.06
2024-03-03T00:43:47.433Z,99070.22
2024-03-03T00:46:14.872Z,99072.88
2024-03-03T00:48:42.309Z,99041.69
2024-03-03T00:51:09.796Z,99050.75
2024-03-03T00:53:37.332Z,99005.50
2024-03-03T00:56:09.013Z,99043.41
2024-03-03T00:58:37.310Z,99031.84
2024-03-03T01:01:04.719Z,99012.19
2024-03-03T01:03:33.174Z,99050.81
2024-03-03T01:06:00.673Z,99072.75
2024-03-03T01:08:27.839Z,99074.06
2024-03-03T01:10:54.953Z,99011.50
2024-03-03T01:13:22.219Z,99012.50
2024-03-03T01:15:49.530Z,99041.69
2024-03-03T01:18:17.044Z,99038.56
2024-03-03T01:20:44.222Z,99032.16
2024-03-03T01:23:12.985Z,99022.25
2024-03-03T01:25:40.291Z,98991.19
2024-03-03T01:28:07.514Z,99015.84
2024-03-03T01:30:34.668Z,99037.25
2024-03-03T01:33:01.952Z,98989.16
2024-03-03T01:35:29.011Z,99055.28
2024-03-03T01:37:56.200Z,99016.75
2024-03-03T01:40:23.724Z,99005.50
2024-03-03T01:42:56.310Z,99031.56
2024-03-03T01:45:24.807Z,99064.53
2024-03-03T01:47:53.786Z,99028.72
2024-03-03T01:50:22.708Z,99063.41
2024-03-03T01:52:52.074Z,99069.00
2024-03-03T01:55:21.960Z,99046.41
2024-03-03T01:57:51.921Z,99037.47
2024-03-03T02:00:22.321Z,99009.88
2024-03-03T02:02:50.817Z,98996.28
2024-03-03T02:05:19.931Z,99034.53
2024-03-03T02:07:48.103Z,99029.16
2024-03-03T02:10:17.226Z,99044.78
2024-03-03T02:12:48.036Z,99022.03
2024-03-03T02:15:18.232Z,99013.00
2024-03-03T02:17:45.582Z,99016.16
2024-03-03T02:20:12.999Z,99055.22
2024-03-03T02:22:40.201Z,99056.53
2024-03-03T02:25:10.157Z,99029.75
2024-03-03T02:27:41.295Z,98983.47
2024-03-03T02:30:12.739Z,99017.88
2024-03-03T02:32:40.770Z,98990.38
2024-03-03T02:35:11.726Z,98981.03
2024-03-03T02:37:50.197Z,98980.34
2024-03-03T02:40:25.510Z,99054.91
2024-03-03T02:43:08.461Z,99060.09
2024-03-03T02:45:43.762Z,98995.75
2024-03-03T02:48:12.415Z,98997.38
2024-03-03T02:50:46.007Z,98987.53
2024-03-03T02:53:22.902Z,99069.31
2024-03-03T02:55:52.842Z,99024.47
2024-03-03T02:58:25.276Z,99056.53
2024-03-03T03:00:57.380Z,99040.31
2024-03-03T03:03:32.608Z,99015.75
2024-03-03T03:06:02.065Z,99083.59
2024-03-03T03:08:43.163Z,99046.41
2024-03-03T03:11:23.904Z,99073.97
2024-03-03T03:14:03.303Z,99052.28
2024-03-03T03:16:44.369Z,98991.19
2024-03-03T03:19:15.566Z,99018.19
2024-03-03T03:21:46.072Z,99005.81
2024-03-03T03:24:17.026Z,99005.69
2024-03-03T03:26:53.027Z,98995.34
2024-03-03T03:29:32.252Z,99033.81
2024-03-03T03:32:06.067Z,99011.09
2024-03-03T03:34:39.967Z,99015.53
2024-03-03T03:37:14.981Z,99042.53
2024-03-03T03:39:51.613Z,99083.34
2024-03-03T03:42:39.668Z,98993.44
2024-03-03T03:45:16.987Z,99014.31
2024-03-03T03:47:49.170Z,99061.28
2024-03-03T03:50:22.558Z,99035.31
2024-03-03T03:52:52.446Z,99065.63
2024-03-03T03:55:29.041Z,99046.56
2024-03-03T03:58:00.881Z,99019.09
2024-03-03T04:00:31.797Z,99022.25
2024-03-03T04:03:02.381Z,99039.78
2024-03-03T04:05:44.220Z,99075.28
2024-03-03T04:08:41.238Z,99029.25
2024-03-03T04:11:17.972Z,99063.25
2024-03-03T04:13:50.266Z,99034.63
2024-03-03T04:16:22.935Z,99023.97
2024-03-03T04:18:54.040Z,99035.44
2024-03-03T04:21:29.549Z,99099.25
2024-03-03T04:24:05.665Z,99056.13
2024-03-03T04:26:33.488Z,99029.75
2024-03-03T04:29:03.368Z,99057.97
2024-03-03T04:31:46.091Z,99103.22
2024-03-03T04:34:18.307Z,99110.94
2024-03-03T04:36:54.557Z,99034.00
2024-03-03T04:39:22.828Z,99036.13
2024-03-03T04:41:55.915Z,99074.56
2024-03-03T04:44:33.929Z,99087.16
2024-03-03T04:47:13.100Z,99045.88
2024-03-03T04:49:48.737Z,99049.84
2024-03-03T04:52:23.174Z,99052.69
2024-03-03T04:55:00.989Z,99041.94
2024-03-03T04:57:33.301Z,99136.13
2024-03-03T05:00:11.671Z,99082.94
2024-03-03T05:02:44.468Z,99132.06
2024-03-03T05:05:29.264Z,99066.59
2024-03-03T05:07:57.726Z,99071.16
2024-03-03T05:10:27.952Z,99091.25
2024-03-03T05:12:58.304Z,99059.78
2024-03-03T05:15:33.132Z,99098.44
2024-03-03T05:18:34.681Z,99054.91
2024-03-03T05:21:07.679Z,99133.47
2024-03-03T05:23:49.084Z,99058.97
2024-03-03T05:26:26.440Z,99137.13
2024-03-03T05:29:12.108Z,99102.50
2024-03-03T05:31:46.510Z,99070.75
2024-03-03T05:34:26.823Z,99068.72
2024-03-03T05:37:00.489Z,99077.81
2024-03-03T05:39:36.128Z,99083.81
2024-03-03T05:42:15.147Z,99069.59
2024-03-03T05:44:48.916Z,99078.84
2024-03-03T05:47:20.099Z,99117.00
2024-03-03T05:49:50.712Z,99079.66
2024-03-03T05:52:24.960Z,99085.16
2024-03-03T05:54:58.702Z,99077.44
2024-03-03T05:57:33.216Z,99082.81
2024-03-03T06:00:09.021Z,99085.75
2024-03-03T06:02:43.839Z,99084.31
2024-03-03T06:05:17.591Z,99148.72
2024-03-03T06:07:50.466Z,99123.19
2024-03-03T06:10:20.799Z,99096.16
2024-03-03T06:13:24.545Z,99126.44
2024-03-03T06:15:52.888Z,99093.00
2024-03-03T06:18:32.579Z,99095.44
2024-03-03T06:21:09.583Z,99095.66
2024-03-03T06:23:57.576Z,99143.09
2024-03-03T06:26:39.829Z,99109.22
2024-03-03T06:29:25.543Z,99104.22
2024-03-03T06:32:24.633Z,99170.84
2024-03-03T06:35:08.229Z,99156.81
2024-03-03T06:37:54.712Z,99151.25
2024-03-03T06:40:29.455Z,99135.91
2024-03-03T06:43:01.503Z,99115.25
2024-03-03T06:45:52.585Z,99110.75
2024-03-03T06:48:37.684Z,99101.88
2024-03-03T06:51:14.314Z,99109.69
2024-03-03T06:53:47.657Z,99099.25
2024-03-03T06:56:36.020Z,99157.13
2024-03-03T06:59:58.745Z,99175.09
2024-03-03T07:03:02.445Z,99124.50
2024-03-03T07:05:34.747Z,99118.09
2024-03-03T07:08:34.620Z,99114.25
2024-03-03T07:11:12.017Z,99118.03
2024-03-03T07:13:43.516Z,99141.28
2024-03-03T07:16:23.985Z,99193.28
2024-03-03T07:19:04.025Z,99195.72
2024-03-03T07:21:36.366Z,99190.72
2024-03-03T07:24:18.363Z,99155.88
2024-03-03T07:26:55.119Z,99127.28
2024-03-03T07:29:28.387Z,99157.72
2024-03-03T07:32:02.697Z,99127.63
2024-03-03T07:34:38.594Z,99123.28
2024-03-03T07:37:14.230Z,99129.94
2024-03-03T07:39:50.909Z,99125.69
2024-03-03T07:42:30.026Z,99150.34
2024-03-03T07:45:05.702Z,99195.56
2024-03-03T07:47:40.709Z,99141.28
2024-03-03T07:50:19.141Z,99129.97
2024-03-03T07:53:03.621Z,99130.97
2024-03-03T07:55:37.802Z,99174.69
2024-03-03T07:58:15.850Z,99173.09
2024-03-03T08:01:15.248Z,99160.94
2024-03-03T08:03:50.316Z,99132.41
2024-03-03T08:06:28.884Z,99157.84
2024-03-03T08:09:05.553Z,99146.50
2024-03-03T08:11:36.537Z,99165.81
2024-03-03T08:14:11.474Z,99126.25
2024-03-03T08:16:44.810Z,99137.72
2024-03-03T08:19:20.115Z,99135.81
2024-03-03T08:22:02.376Z,99147.25
2024-03-03T08:24:39.035Z,99143.34
2024-03-03T08:27:20.815Z,99159.19
2024-03-03T08:30:24.113Z,99199.81
2024-03-03T08:33:06.702Z,99142.75
2024-03-03T08:35:43.812Z,99199.94
2024-03-03T08:41:10.077Z,99151.44
2024-03-03T08:43:48.195Z,99171.41
2024-03-03T08:46:34.114Z,99149.16
2024-03-03T08:49:20.954Z,99139.16
2024-03-03T08:52:00.304Z,99143.19
2024-03-03T08:54:37.595Z,99149.34
2024-03-03T08:57:15.517Z,99136.06
2024-03-03T08:59:46.310Z,99132.44
2024-03-03T09:02:13.514Z,99184.94
2024-03-03T09:04:40.529Z,99191.22
2024-03-03T09:07:09.300Z,99197.56
2024-03-03T09:09:40.902Z,99198.50
2024-03-03T09:12:09.918Z,99195.06
2024-03-03T09:14:36.963Z,99187.81
2024-03-03T09:17:03.942Z,99206.66
2024-03-03T09:19:30.951Z,99190.44
2024-03-03T09:21:57.819Z,99199.16
2024-03-03T09:24:26.687Z,99192.56
2024-03-03T09:26:53.707Z,99194.59
2024-03-03T09:29:23.989Z,99191.03
2024-03-03T09:31:55.763Z,99188.00
2024-03-03T09:34:23.852Z,99186.28
2024-03-03T09:36:51.139Z,99196.13
2024-03-03T09:39:18.402Z,99189.50
2024-03-03T09:41:45.444Z,99187.41
2024-03-03T09:44:21.113Z,99173.38
2024-03-03T09:46:49.739Z,99171.19
2024-03-03T09:49:24.381Z,99185.75
2024-03-03T09:51:51.490Z,99183.81
2024-03-03T09:54:19.688Z,99171.59
2024-03-03T09:56:49.039Z,99182.81
2024-03-03T09:59:22.607Z,99178.84
2024-03-03T10:01:57.132Z,99190.81
2024-03-03T10:04:26.788Z,99171.25
2024-03-03T10:06:56.454Z,99167.81
2024-03-03T10:09:26.364Z,99166.06
2024-03-03T10:11:56.426Z,99170.50
2024-03-03T10:14:25.673Z,99171.56
2024-03-03T10:16:52.723Z,99166.31
2024-03-03T10:19:20.182Z,99154.94
2024-03-03T10:21:48.813Z,99159.91
2024-03-03T10:24:23.380Z,99154.94
2024-03-03T10:26:54.716Z,99152.97
2024-03-03T10:29:22.285Z,99155.31
2024-03-03T10:31:49.666Z,99153.81
2024-03-03T10:34:24.107Z,99147.88
2024-03-03T10:37:08.157Z,99146.09
2024-03-03T10:39:42.687Z,99130.19
2024-03-03T10:42:11.467Z,99140.44
2024-03-03T10:44:42.480Z,99123.72
2024-03-03T10:47:20.514Z,99126.03
2024-03-03T10:49:50.135Z,99127.16
2024-03-03T10:52:18.999Z,99124.16
2024-03-03T10:54:46.243Z,99130.50
2024-03-03T10:57:17.658Z,99124.59
2024-03-03T10:59:45.726Z,99131.50
2024-03-03T11:02:15.644Z,99120.84
2024-03-03T11:04:44.029Z,99126.53
2024-03-03T11:07:12.253Z,99120.13
2024-03-03T11:09:45.870Z,99109.13
2024-03-03T11:12:18.543Z,99115.88
2024-03-03T11:14:46.955Z,99102.81
2024-03-03T11:18:51.769Z,99111.22
2024-03-03T11:21:03.285Z,99116.34
2024-03-03T11:23:42.369Z,99106.31
2024-03-03T11:26:24.285Z,99099.47
2024-03-03T11:28:57.747Z,99096.88
2024-03-03T11:31:25.633Z,99092.50
2024-03-03T11:33:54.402Z,99085.31
2024-03-03T11:36:22.717Z,99087.56
2024-03-03T11:38:49.774Z,99088.28
2024-03-03T11:41:21.787Z,99067.06
2024-03-03T11:43:52.245Z,99079.13
2024-03-03T11:46:51.104Z,99078.69
2024-03-03T11:49:19.612Z,99086.13
2024-03-03T11:51:46.777Z,99066.06
2024-03-03T11:54:14.942Z,99071.72
2024-03-03T11:56:51.325Z,99072.19
2024-03-03T11:59:18.555Z,99061.72
2024-03-03T12:01:49.283Z,99060.28
2024-03-03T12:04:17.112Z,99061.78
2024-03-03T12:06:44.379Z,99066.94
2024-03-03T12:09:12.182Z,99066.59
2024-03-03T12:11:39.558Z,99060.44
2024-03-03T12:14:08.332Z,99056.22
2024-03-03T12:16:35.462Z,99064.81
2024-03-03T12:19:02.757Z,99062.84
2024-03-03T12:21:30.219Z,99053.72
2024-03-03T12:23:57.926Z,99056.38
2024-03-03T12:26:24.898Z,99057.38
2024-03-03T12:28:52.165Z,99048.31
2024-03-03T12:31:22.444Z,99055.47
2024-03-03T12:33:50.420Z,99048.59
2024-03-03T12:36:17.950Z,99057.97
2024-03-03T12:38:47.604Z,99035.66
2024-03-03T12:41:15.813Z,99047.72
2024-03-03T12:43:42.698Z,99042.16
2024-03-03T12:46:10.016Z,99039.56
2024-03-03T12:48:36.793Z,99031.91
2024-03-03T12:51:04.156Z,99033.06
2024-03-03T12:53:39.215Z,99028.06
2024-03-03T12:56:21.824Z,99029.31
2024-03-03T12:58:49.781Z,99026.44
2024-03-03T13:01:18.481Z,99029.22
2024-03-03T13:03:48.028Z,99033.59
2024-03-03T13:06:18.406Z,99026.34
2024-03-03T13:08:46.856Z,99024.13
2024-03-03T13:11:14.728Z,99021.34
2024-03-03T13:13:42.064Z,99026.06
2024-03-03T13:16:10.592Z,99024.84
2024-03-03T13:18:38.012Z,99018.84
2024-03-03T13:21:17.681Z,99009.88
2024-03-03T13:23:44.555Z,99022.25
2024-03-03T13:26:11.958Z,99026.28
2024-03-03T13:28:39.730Z,99024.13
2024-03-03T13:31:07.780Z,99019.28
2024-03-03T13:33:40.174Z,99026.53
2024-03-03T13:36:11.221Z,99014.69
2024-03-03T13:38:38.709Z,99010.28
2024-03-03T13:41:06.084Z,98998.09
2024-03-03T13:43:36.215Z,99014.84
2024-03-03T13:46:03.286Z,99009.13
2024-03-03T13:48:30.341Z,98998.59
2024-03-03T13:50:59.384Z,99001.06
2024-03-03T13:53:27.498Z,99009.84
2024-03-03T13:55:54.541Z,99003.56
2024-03-03T13:58:21.694Z,99003.69
2024-03-03T14:00:49.376Z,99014.63
2024-03-03T14:03:16.328Z,99002.47
2024-03-03T14:05:43.920Z,99009.63
2024-03-03T14:08:13.994Z,98992.44
2024-03-03T14:10:40.987Z,98999.69
2024-03-03T14:13:07.967Z,99006.03
2024-03-03T14:15:35.024Z,99015.53
2024-03-03T14:18:02.949Z,99008.56
2024-03-03T14:20:30.141Z,98998.31
2024-03-03T14:22:57.500Z,99013.38
2024-03-03T14:25:26.366Z,99009.50
2024-03-03T14:28:01.536Z,99004.69
2024-03-03T14:30:36.640Z,99008.53
2024-03-03T14:33:05.977Z,99001.19
2024-03-03T14:35:33.391Z,99015.63
2024-03-03T14:38:00.172Z,99000.56
2024-03-03T14:40:27.013Z,99009.25
2024-03-03T14:42:54.740Z,99009.25
2024-03-03T14:45:22.256Z,99006.91
2024-03-03T14:47:49.491Z,98999.31
2024-03-03T14:50:17.091Z,99006.28
2024-03-03T14:52:43.886Z,99001.59
2024-03-03T14:55:11.669Z,99004.38
2024-03-03T14:57:38.853Z,99007.72
2024-03-03T15:00:07.052Z,99000.34
2024-03-03T15:02:36.729Z,99004.09
2024-03-03T15:05:07.487Z,99003.28
2024-03-03T15:07:34.696Z,99006.50
2024-03-03T15:10:01.750Z,98992.34
2024-03-03T15:12:28.648Z,99004.69
2024-03-03T15:14:55.729Z,98999.56
2024-03-03T15:17:22.698Z,99000.94
2024-03-03T15:19:49.744Z,99004.06
2024-03-03T15:22:17.055Z,99009.25
2024-03-03T15:24:46.321Z,99002.44
2024-03-03T15:27:13.670Z,99000.72
2024-03-03T15:29:43.543Z,99001.31
2024-03-03T15:32:11.090Z,99015.34
2024-03-03T15:34:37.980Z,99002.06
2024-03-03T15:37:05.191Z,99015.22
2024-03-03T15:39:34.411Z,98997.75
2024-03-03T15:42:03.206Z,99002.41
2024-03-03T15:44:30.813Z,99004.50
2024-03-03T15:46:57.614Z,99001.72
2024-03-03T15:49:24.646Z,99004.28
2024-03-03T15:51:51.711Z,99000.13
2024-03-03T15:54:18.690Z,99001.63
2024-03-03T15:56:45.969Z,99009.47
2024-03-03T15:59:12.917Z,99004.50
2024-03-03T16:01:40.847Z,99015.34
2024-03-03T16:04:07.818Z,99016.97
2024-03-03T16:06:35.243Z,99006.72
2024-03-03T16:09:05.009Z,99016.06
2024-03-03T16:11:32.505Z,99011.69
2024-03-03T16:13:59.668Z,99002.47
2024-03-03T16:16:28.293Z,99013.75
2024-03-03T16:19:02.013Z,99016.94
2024-03-03T16:21:54.488Z,99024.06
2024-03-03T16:24:24.356Z,99019.19
2024-03-03T16:26:51.356Z,99022.88
2024-03-03T16:29:18.287Z,99015.13
2024-03-03T16:31:45.684Z,99019.13
2024-03-03T16:34:12.654Z,99029.19
2024-03-03T16:36:39.767Z,99016.47
2024-03-03T16:39:08.364Z,99027.06
2024-03-03T16:41:35.874Z,99029.91
2024-03-03T16:44:04.350Z,99024.56
2024-03-03T16:46:31.802Z,99023.03
2024-03-03T16:48:59.433Z,99025.50
2024-03-03T16:51:26.437Z,99024.78
2024-03-03T16:53:53.936Z,99023.84
2024-03-03T16:56:21.794Z,99032.47
2024-03-03T16:58:48.860Z,99022.75
2024-03-03T17:01:15.985Z,99028.81
2024-03-03T17:03:45.607Z,99026.72
2024-03-03T17:06:12.431Z,99012.16
2024-03-03T17:08:39.619Z,99030.31
2024-03-03T17:11:08.247Z,99003.13
2024-03-03T17:13:35.496Z,99033.94
2024-03-03T17:16:02.494Z,99020.16
2024-03-03T17:18:30.502Z,99018.72
2024-03-03T17:20:57.374Z,99021.63
2024-03-03T17:23:27.299Z,99029.28
2024-03-03T17:25:54.333Z,99030.75
2024-03-03T17:28:21.347Z,99037.06
2024-03-03T17:30:48.416Z,99042.91
2024-03-03T17:33:15.530Z,99037.22
2024-03-03T17:35:42.628Z,99033.66
2024-03-03T17:38:09.548Z,99035.75
2024-03-03T17:40:36.756Z,99036.69
2024-03-03T17:43:04.131Z,99040.59
2024-03-03T17:45:31.307Z,99033.78
2024-03-03T17:47:58.327Z,99025.38
2024-03-03T17:50:25.333Z,99022.66
2024-03-03T17:52:52.231Z,99033.06
2024-03-03T17:55:19.160Z,99037.13
2024-03-03T17:57:50.749Z,99037.53
2024-03-03T18:00:18.893Z,99028.47
2024-03-03T18:02:46.321Z,99022.69
2024-03-03T18:05:13.303Z,99036.63
2024-03-03T18:07:41.065Z,99048.31
2024-03-03T18:10:08.948Z,99034.38
2024-03-03T18:12:36.205Z,99033.09
2024-03-03T18:15:05.325Z,99045.25
2024-03-03T18:17:34.805Z,99040.59
2024-03-03T18:20:01.903Z,99050.81
2024-03-03T18:22:28.892Z,99048.06
2024-03-03T18:24:56.070Z,99047.72
2024-03-03T18:27:24.104Z,99044.97
2024-03-03T18:29:51.906Z,99056.47
2024-03-03T18:32:19.433Z,99059.53
2024-03-03T18:34:49.165Z,99062.41
2024-03-03T18:37:16.013Z,99064.19
2024-03-03T18:39:42.946Z,99048.47
2024-03-03T18:42:12.959Z,99063.38
2024-03-03T18:44:41.277Z,99066.44
2024-03-03T18:47:09.180Z,99063.84
2024-03-03T18:50:26.030Z,99071.44
2024-03-03T18:52:53.834Z,99065.88
2024-03-03T18:55:20.901Z,99065.03
2024-03-03T18:57:49.449Z,99056.59
2024-03-03T19:00:19.567Z,99062.41
2024-03-03T19:02:46.480Z,99065.63
2024-03-03T19:05:13.715Z,99072.06
2024-03-03T19:07:40.852Z,99062.84
2024-03-03T19:10:08.800Z,99063.75
2024-03-03T19:12:35.778Z,99070.19
2024-03-03T19:15:03.179Z,99077.75
2024-03-03T19:17:30.022Z,99073.53
2024-03-03T19:19:58.313Z,99078.03
2024-03-03T19:22:25.197Z,99077.81
2024-03-03T19:24:52.149Z,99083.91
2024-03-03T19:27:19.094Z,99079.81
2024-03-03T19:29:45.972Z,99085.28
2024-03-03T19:32:12.845Z,99071.56
2024-03-03T19:34:41.501Z,99076.06
2024-03-03T19:37:10.043Z,99060.97
2024-03-03T19:39:37.094Z,99080.47
2024-03-03T19:42:05.489Z,99085.72
2024-03-03T19:44:32.386Z,99076.44
2024-03-03T19:47:25.725Z,99072.28
2024-03-03T19:50:03.128Z,99086.94
2024-03-03T19:52:45.745Z,99078.00
2024-03-03T19:55:12.879Z,99076.50
2024-03-03T19:57:39.852Z,99078.13
2024-03-03T20:00:15.792Z,99084.31
2024-03-03T20:02:44.084Z,99080.25
2024-03-03T20:05:11.144Z,99080.28
2024-03-03T20:07:38.498Z,99090.03
2024-03-03T20:10:08.091Z,99089.53
2024-03-03T20:12:34.995Z,99076.91
2024-03-03T20:15:03.211Z,99089.19
2024-03-03T20:17:30.519Z,99091.03
2024-03-03T20:19:58.021Z,99081.72
2024-03-03T20:22:26.944Z,99081.31
2024-03-03T20:24:54.034Z,99090.75
2024-03-03T20:27:22.704Z,99097.94
2024-03-03T20:29:49.784Z,99089.31
2024-03-03T20:32:16.710Z,99090.63
2024-03-03T20:34:43.655Z,99093.44
2024-03-03T20:37:10.773Z,99084.81
2024-03-03T20:39:37.781Z,99086.03
2024-03-03T20:42:07.139Z,99085.81
2024-03-03T20:44:34.084Z,99078.72
2024-03-03T20:47:01.037Z,99084.50
2024-03-03T20:49:28.086Z,99087.41
2024-03-03T20:51:55.062Z,99082.44
2024-03-03T20:54:22.370Z,99086.50
2024-03-03T20:56:49.270Z,99081.69
2024-03-03T20:59:16.282Z,99070.41
2024-03-03T21:01:43.350Z,99082.16
2024-03-03T21:04:31.615Z,99067.03
2024-03-03T21:07:05.346Z,99078.78
2024-03-03T21:09:58.065Z,99081.00
2024-03-03T21:12:25.166Z,99053.44
2024-03-03T21:14:52.094Z,99064.97
2024-03-03T21:17:19.138Z,99080.56
2024-03-03T21:19:46.503Z,99069.78
2024-03-03T21:22:14.590Z,99080.34
2024-03-03T21:24:41.499Z,99081.47
2024-03-03T21:27:09.029Z,99067.34
2024-03-03T21:29:36.998Z,99078.28
2024-03-03T21:32:04.035Z,99058.78
2024-03-03T21:34:31.134Z,99075.19
2024-03-03T21:36:58.570Z,99078.53
2024-03-03T21:39:26.213Z,99079.41
2024-03-03T21:41:53.556Z,99075.94
2024-03-03T21:44:20.704Z,99076.56
2024-03-03T21:46:47.748Z,99073.38
2024-03-03T21:49:15.298Z,99073.16
2024-03-03T21:51:42.432Z,99075.66
2024-03-03T21:54:09.324Z,99066.66
2024-03-03T21:56:36.768Z,99075.66
2024-03-03T21:59:03.705Z,99069.28
2024-03-03T22:01:30.609Z,99070.44
2024-03-03T22:03:57.745Z,99071.31
2024-03-03T22:06:24.720Z,99069.00
2024-03-03T22:08:56.820Z,99081.81
2024-03-03T22:11:25.195Z,99083.19
2024-03-03T22:13:52.119Z,99082.94
2024-03-03T22:16:19.049Z,99070.72
2024-03-03T22:18:47.196Z,99084.31
2024-03-03T22:21:14.344Z,99080.03
2024-03-03T22:23:41.303Z,99072.97
2024-03-03T22:26:08.413Z,99082.22
2024-03-03T22:28:35.348Z,99074.09
2024-03-03T22:31:02.451Z,99086.97
2024-03-03T22:33:29.639Z,99086.50
2024-03-03T22:35:56.570Z,99085.72
2024-03-03T22:38:23.784Z,99080.88
2024-03-03T22:40:50.882Z,99090.94
2024-03-03T22:43:18.390Z,99066.78
2024-03-03T22:45:45.387Z,99079.31
2024-03-03T22:48:12.457Z,99083.09
2024-03-03T22:50:41.305Z,99083.38
2024-03-03T22:53:10.329Z,99089.06
2024-03-03T22:55:37.715Z,99089.13
2024-03-03T22:58:04.942Z,99081.22
2024-03-03T23:00:33.769Z,99080.22
2024-03-03T23:03:00.653Z,99078.28
2024-03-03T23:05:27.773Z,99073.97
2024-03-03T23:07:54.786Z,99078.16
2024-03-03T23:10:22.190Z,99083.66
2024-03-03T23:12:50.388Z,99090.59
2024-03-03T23:15:17.344Z,99081.63
2024-03-03T23:17:44.424Z,99079.75
2024-03-03T23:20:11.859Z,99091.22
2024-03-03T23:22:39.092Z,99087.13
2024-03-03T23:25:10.491Z,99070.59
2024-03-03T23:27:38.511Z,99089.91
2024-03-03T23:30:16.137Z,99064.13
2024-03-03T23:36:22.294Z,99084.22
2024-03-03T23:38:50.660Z,99091.06
2024-03-03T23:41:17.616Z,99083.16
2024-03-03T23:43:44.646Z,99075.56
2024-03-03T23:46:12.434Z,99082.94
2024-03-03T23:48:39.612Z,99078.31
2024-03-03T23:51:07.614Z,99077.75
2024-03-03T23:53:35.426Z,99072.63
2024-03-03T23:56:04.847Z,99069.41
2024-03-03T23:58:31.993Z,99081.69
